createdAt,value
2023-10-18T00:01:32.015Z,65.40
2023-10-18T00:04:04.720Z,65.80
2023-10-18T00:06:37.623Z,66.30
2023-10-18T00:09:28.534Z,66.80
2023-10-18T00:12:02.194Z,67.30
2023-10-18T00:14:37.269Z,67.90
2023-10-18T00:17:10.463Z,68.40
2023-10-18T00:19:42.676Z,68.90
2023-10-18T00:22:14.898Z,69.50
2023-10-18T00:24:47.250Z,69.90
2023-10-18T00:27:19.403Z,70.30
2023-10-18T00:29:56.364Z,70.70
2023-10-18T00:32:28.550Z,71.20
2023-10-18T00:35:01.067Z,71.50
2023-10-18T00:37:33.244Z,71.90
2023-10-18T00:40:22.387Z,72.30
2023-10-18T00:42:54.733Z,72.70
2023-10-18T00:45:30.493Z,73.20
2023-10-18T00:48:07.246Z,73.40
2023-10-18T00:50:43.124Z,73.70
2023-10-18T00:53:21.936Z,74.00
2023-10-18T00:55:59.059Z,74.30
2023-10-18T00:58:35.404Z,74.60
2023-10-18T01:01:11.162Z,74.90
2023-10-18T01:03:51.978Z,75.20
2023-10-18T01:06:28.146Z,75.40
2023-10-18T01:09:00.498Z,75.60
2023-10-18T01:11:33.276Z,75.70
2023-10-18T01:14:06.416Z,76.00
2023-10-18T01:16:41.278Z,76.30
2023-10-18T01:19:16.144Z,76.50
2023-10-18T01:21:48.367Z,76.70
2023-10-18T01:24:22.142Z,76.90
2023-10-18T01:26:56.952Z,77.10
2023-10-18T01:29:30.244Z,77.40
2023-10-18T01:32:02.567Z,77.60
2023-10-18T01:34:35.176Z,77.80
2023-10-18T01:37:12.243Z,78.00
2023-10-18T01:39:44.500Z,78.20
2023-10-18T01:42:19.295Z,78.50
2023-10-18T01:44:53.769Z,78.70
2023-10-18T01:47:26.064Z,78.90
2023-10-18T01:49:58.621Z,79.10
2023-10-18T01:52:30.816Z,79.30
2023-10-18T01:55:03.007Z,79.40
2023-10-18T01:57:39.059Z,79.70
2023-10-18T02:00:16.615Z,79.90
2023-10-18T02:02:49.019Z,80.10
2023-10-18T02:05:22.476Z,80.20
2023-10-18T02:07:56.639Z,80.30
2023-10-18T02:10:29.683Z,80.40
2023-10-18T02:13:06.592Z,80.60
2023-10-18T02:15:42.981Z,80.80
2023-10-18T02:18:15.760Z,80.90
2023-10-18T02:20:54.058Z,81.00
2023-10-18T02:23:34.266Z,81.20
2023-10-18T02:26:26.829Z,81.40
2023-10-18T02:29:06.870Z,81.50
2023-10-18T02:31:39.198Z,81.70
2023-10-18T02:37:37.385Z,82.30
2023-10-18T02:40:11.131Z,82.40
2023-10-18T02:42:43.671Z,82.70
2023-10-18T02:45:23.448Z,82.80
2023-10-18T02:47:55.727Z,83.00
2023-10-18T02:50:28.191Z,83.00
2023-10-18T02:53:01.634Z,83.10
2023-10-18T02:55:34.165Z,83.20
2023-10-18T02:58:08.473Z,83.30
2023-10-18T03:00:46.005Z,83.40
2023-10-18T03:03:22.937Z,83.50
2023-10-18T03:05:55.874Z,83.60
2023-10-18T03:08:29.737Z,83.70
2023-10-18T03:11:04.767Z,83.70
2023-10-18T03:13:38.642Z,83.90
2023-10-18T03:16:16.432Z,84.20
2023-10-18T03:18:50.302Z,84.40
2023-10-18T03:21:22.531Z,84.60
2023-10-18T03:23:54.669Z,84.80
2023-10-18T03:26:39.240Z,85.10
2023-10-18T03:29:14.337Z,85.30
2023-10-18T03:31:52.097Z,85.40
2023-10-18T03:34:24.335Z,85.60
2023-10-18T03:36:56.476Z,85.80
2023-10-18T03:39:28.951Z,86.10
2023-10-18T03:42:03.068Z,86.40
2023-10-18T03:44:35.208Z,86.50
2023-10-18T03:47:25.440Z,86.70
2023-10-18T03:49:59.953Z,86.90
2023-10-18T03:52:32.085Z,87.00
2023-10-18T03:55:12.761Z,87.10
2023-10-18T03:57:45.089Z,87.30
2023-10-18T04:00:26.436Z,87.40
2023-10-18T04:03:01.333Z,87.50
2023-10-18T04:05:36.401Z,87.60
2023-10-18T04:08:08.813Z,87.30
2023-10-18T04:10:42.066Z,87.80
2023-10-18T04:13:15.254Z,87.90
2023-10-18T04:15:47.687Z,88.00
2023-10-18T04:18:31.297Z,88.00
2023-10-18T04:21:06.605Z,88.10
2023-10-18T04:23:38.840Z,88.20
2023-10-18T04:26:16.522Z,88.30
2023-10-18T04:28:50.355Z,88.50
2023-10-18T04:31:23.429Z,88.50
2023-10-18T04:33:59.451Z,88.60
2023-10-18T04:36:35.054Z,88.80
2023-10-18T04:39:08.308Z,88.90
2023-10-18T04:41:40.478Z,89.00
2023-10-18T04:44:19.745Z,89.10
2023-10-18T04:46:54.235Z,89.20
2023-10-18T04:49:39.693Z,89.30
2023-10-18T04:52:21.757Z,89.40
2023-10-18T04:55:05.477Z,89.40
2023-10-18T04:57:40.159Z,89.40
2023-10-18T05:00:32.182Z,89.50
2023-10-18T05:03:15.814Z,89.50
2023-10-18T05:05:53.901Z,89.70
2023-10-18T05:08:26.307Z,89.90
2023-10-18T05:11:18.483Z,89.90
2023-10-18T05:13:50.721Z,90.00
2023-10-18T05:16:23.443Z,90.10
2023-10-18T05:18:55.661Z,90.20
2023-10-18T05:21:33.284Z,90.30
2023-10-18T05:24:06.553Z,90.50
2023-10-18T05:26:39.414Z,90.50
2023-10-18T05:29:19.049Z,90.60
2023-10-18T05:32:08.157Z,90.60
2023-10-18T05:35:06.444Z,90.70
2023-10-18T05:37:51.886Z,90.80
2023-10-18T05:40:35.812Z,90.80
2023-10-18T05:43:23.755Z,90.90
2023-10-18T05:46:01.489Z,91.00
2023-10-18T05:48:33.884Z,91.00
2023-10-18T05:51:36.657Z,91.10
2023-10-18T05:54:13.403Z,91.20
2023-10-18T05:56:51.071Z,91.30
2023-10-18T05:59:23.443Z,91.40
2023-10-18T06:02:00.325Z,91.40
2023-10-18T06:04:39.884Z,91.60
2023-10-18T06:07:13.301Z,91.70
2023-10-18T06:09:48.670Z,91.80
2023-10-18T06:12:24.232Z,91.90
2023-10-18T06:14:59.229Z,91.90
2023-10-18T06:17:48.426Z,92.00
2023-10-18T06:20:30.279Z,92.10
2023-10-18T06:23:29.635Z,92.20
2023-10-18T06:26:24.602Z,92.30
2023-10-18T06:29:02.088Z,92.40
2023-10-18T06:31:41.450Z,92.40
2023-10-18T06:34:19.756Z,92.50
2023-10-18T06:36:54.189Z,92.60
2023-10-18T06:39:26.905Z,92.50
2023-10-18T06:42:07.595Z,92.60
2023-10-18T06:44:42.255Z,92.70
2023-10-18T06:47:17.559Z,92.80
2023-10-18T06:49:56.135Z,92.90
2023-10-18T06:52:46.074Z,92.90
2023-10-18T06:55:19.392Z,93.10
2023-10-18T06:57:58.064Z,93.10
2023-10-18T07:00:31.978Z,93.20
2023-10-18T07:03:06.464Z,93.30
2023-10-18T07:05:45.273Z,93.40
2023-10-18T07:08:20.865Z,93.50
2023-10-18T07:13:45.459Z,93.80
2023-10-18T07:16:34.379Z,93.90
2023-10-18T07:19:25.292Z,94.00
2023-10-18T07:22:07.820Z,94.20
2023-10-18T07:24:41.205Z,94.30
2023-10-18T07:27:13.439Z,94.50
2023-10-18T07:29:50.383Z,94.60
2023-10-18T07:32:25.712Z,94.70
2023-10-18T07:34:58.621Z,94.80
2023-10-18T07:37:42.838Z,94.90
2023-10-18T07:40:23.223Z,95.00
2023-10-18T07:42:55.585Z,95.10
2023-10-18T07:45:31.250Z,95.20
2023-10-18T07:48:06.856Z,95.30
2023-10-18T07:50:41.768Z,95.30
2023-10-18T07:53:14.140Z,95.40
2023-10-18T07:55:49.440Z,95.40
2023-10-18T07:58:27.808Z,95.40
2023-10-18T08:01:02.787Z,95.40
2023-10-18T08:03:35.471Z,95.50
2023-10-18T08:06:08.453Z,95.50
2023-10-18T08:08:43.132Z,95.50
2023-10-18T08:11:16.112Z,95.50
2023-10-18T08:13:48.365Z,95.50
2023-10-18T08:16:28.162Z,95.50
2023-10-18T08:19:06.612Z,95.50
2023-10-18T08:21:39.095Z,95.50
2023-10-18T08:24:21.996Z,95.40
2023-10-18T08:27:01.282Z,95.40
2023-10-18T08:29:35.840Z,95.40
2023-10-18T08:32:16.526Z,95.40
2023-10-18T08:34:49.712Z,95.40
2023-10-18T08:37:21.909Z,95.30
2023-10-18T08:39:54.520Z,95.30
2023-10-18T08:42:31.821Z,95.20
2023-10-18T08:45:05.701Z,95.10
2023-10-18T08:47:47.980Z,95.00
2023-10-18T08:50:20.668Z,94.90
2023-10-18T08:52:53.226Z,94.90
2023-10-18T08:55:55.051Z,94.90
2023-10-18T08:58:30.893Z,94.80
2023-10-18T09:01:03.910Z,94.80
2023-10-18T09:03:38.809Z,94.70
2023-10-18T09:06:11.272Z,94.70
2023-10-18T09:08:44.135Z,94.60
2023-10-18T09:11:22.934Z,94.60
2023-10-18T09:14:11.982Z,94.60
2023-10-18T09:16:48.280Z,94.60
2023-10-18T09:19:29.294Z,94.70
2023-10-18T09:22:03.704Z,94.70
2023-10-18T09:24:35.986Z,94.70
2023-10-18T09:27:08.741Z,94.70
2023-10-18T09:29:40.900Z,94.80
2023-10-18T09:32:33.063Z,94.70
2023-10-18T09:35:09.419Z,94.60
2023-10-18T09:37:41.653Z,94.50
2023-10-18T09:40:13.860Z,94.40
2023-10-18T09:42:46.043Z,94.10
2023-10-18T09:45:21.729Z,93.80
2023-10-18T09:47:54.828Z,93.50
2023-10-18T09:50:32.792Z,93.30
2023-10-18T09:53:06.296Z,93.10
2023-10-18T09:55:43.568Z,93.00
2023-10-18T09:58:20.240Z,92.90
2023-10-18T10:00:58.374Z,92.80
2023-10-18T10:03:32.222Z,92.70
2023-10-18T10:06:07.741Z,92.40
2023-10-18T10:08:44.371Z,92.30
2023-10-18T10:11:20.453Z,92.20
2023-10-18T10:13:53.327Z,92.00
2023-10-18T10:16:26.969Z,91.90
2023-10-18T10:19:06.137Z,91.90
2023-10-18T10:21:43.739Z,91.80
2023-10-18T10:24:36.317Z,91.90
2023-10-18T10:27:23.019Z,91.50
2023-10-18T10:29:58.746Z,91.50
2023-10-18T10:32:31.750Z,91.40
2023-10-18T10:35:17.262Z,91.30
2023-10-18T10:37:53.519Z,91.20
2023-10-18T10:40:29.906Z,91.10
2023-10-18T10:43:04.437Z,91.00
2023-10-18T10:45:50.110Z,90.80
2023-10-18T10:48:38.691Z,90.60
2023-10-18T10:51:23.817Z,90.50
2023-10-18T10:53:59.284Z,90.40
2023-10-18T10:56:49.781Z,90.20
2023-10-18T10:59:24.622Z,90.00
2023-10-18T11:01:56.881Z,89.10
2023-10-18T11:04:48.237Z,88.10
2023-10-18T11:07:23.317Z,87.60
2023-10-18T11:10:03.272Z,87.00
2023-10-18T11:12:36.253Z,86.20
2023-10-18T11:15:17.555Z,85.90
2023-10-18T11:17:50.302Z,85.10
2023-10-18T11:20:44.392Z,84.70
2023-10-18T11:23:16.559Z,84.40
2023-10-18T11:25:58.250Z,84.00
2023-10-18T11:28:30.964Z,83.80
2023-10-18T11:31:03.922Z,84.00
2023-10-18T11:33:48.233Z,83.10
2023-10-18T11:36:21.139Z,82.80
2023-10-18T11:39:28.902Z,82.60
2023-10-18T11:42:04.566Z,82.10
2023-10-18T11:44:37.371Z,81.60
2023-10-18T11:47:20.379Z,81.30
2023-10-18T11:49:55.521Z,80.90
2023-10-18T11:52:28.158Z,80.70
2023-10-18T11:55:10.450Z,80.50
2023-10-18T11:57:48.296Z,80.20
2023-10-18T12:00:26.341Z,79.90
2023-10-18T12:02:58.677Z,79.60
2023-10-18T12:05:31.024Z,79.40
2023-10-18T12:08:07.369Z,79.30
2023-10-18T12:10:39.942Z,79.20
2023-10-18T12:13:14.829Z,78.90
2023-10-18T12:15:47.258Z,78.80
2023-10-18T12:18:22.623Z,78.60
2023-10-18T12:20:55.893Z,78.60
2023-10-18T12:23:28.128Z,78.50
2023-10-18T12:26:07.268Z,78.20
2023-10-18T12:28:42.969Z,78.10
2023-10-18T12:31:15.426Z,78.00
2023-10-18T12:33:53.355Z,78.10
2023-10-18T12:36:33.737Z,78.00
2023-10-18T12:39:09.566Z,77.90
2023-10-18T12:41:41.789Z,77.90
2023-10-18T12:44:19.858Z,77.90
2023-10-18T12:46:54.739Z,77.90
2023-10-18T12:49:33.442Z,77.90
2023-10-18T12:52:06.224Z,78.00
2023-10-18T12:54:38.404Z,77.90
2023-10-18T12:57:10.604Z,77.90
2023-10-18T13:00:00.268Z,77.80
2023-10-18T13:02:51.111Z,77.70
2023-10-18T13:05:23.890Z,77.60
2023-10-18T13:07:56.133Z,77.60
2023-10-18T13:10:31.299Z,77.50
2023-10-18T13:13:06.340Z,77.40
2023-10-18T13:15:42.159Z,77.20
2023-10-18T13:18:15.408Z,77.20
2023-10-18T13:20:50.329Z,77.00
2023-10-18T13:23:22.722Z,76.90
2023-10-18T13:25:54.958Z,76.80
2023-10-18T13:28:35.104Z,76.60
2023-10-18T13:31:11.277Z,76.30
2023-10-18T13:33:45.908Z,76.20
2023-10-18T13:36:18.468Z,76.20
2023-10-18T13:38:51.394Z,76.10
2023-10-18T13:41:26.581Z,76.00
2023-10-18T13:43:59.748Z,75.80
2023-10-18T13:46:37.686Z,75.80
2023-10-18T13:49:18.534Z,75.60
2023-10-18T13:51:50.907Z,75.70
2023-10-18T13:54:23.597Z,75.60
2023-10-18T13:56:55.853Z,75.70
2023-10-18T13:59:28.119Z,75.70
2023-10-18T14:02:03.137Z,75.70
2023-10-18T14:04:36.762Z,75.70
2023-10-18T14:07:09.220Z,75.70
2023-10-18T14:09:44.559Z,75.70
2023-10-18T14:12:16.920Z,75.60
2023-10-18T14:14:49.083Z,75.40
2023-10-18T14:17:24.101Z,75.20
2023-10-18T14:20:08.686Z,75.00
2023-10-18T14:22:48.427Z,74.80
2023-10-18T14:25:20.661Z,74.70
2023-10-18T14:27:53.179Z,74.60
2023-10-18T14:30:28.797Z,74.00
2023-10-18T14:33:07.976Z,74.50
2023-10-18T14:35:44.056Z,74.40
2023-10-18T14:38:16.304Z,74.60
2023-10-18T14:41:03.203Z,74.50
2023-10-18T14:43:37.420Z,74.50
2023-10-18T14:46:12.323Z,74.50
2023-10-18T14:48:47.511Z,74.60
2023-10-18T14:51:22.667Z,74.60
2023-10-18T14:53:54.955Z,74.60
2023-10-18T14:56:27.276Z,74.50
2023-10-18T14:58:59.669Z,74.50
2023-10-18T15:01:33.073Z,74.50
2023-10-18T15:04:10.933Z,74.40
2023-10-18T15:06:43.178Z,74.30
2023-10-18T15:09:17.291Z,74.30
2023-10-18T15:11:50.736Z,74.30
2023-10-18T15:14:23.232Z,74.30
2023-10-18T15:16:55.470Z,74.30
2023-10-18T15:19:30.407Z,74.30
2023-10-18T15:22:04.276Z,74.30
2023-10-18T15:24:41.991Z,74.30
2023-10-18T15:27:14.385Z,74.50
2023-10-18T15:29:46.630Z,74.40
2023-10-18T15:32:19.925Z,74.40
2023-10-18T15:34:55.458Z,74.40
2023-10-18T15:37:28.864Z,74.50
2023-10-18T15:40:01.208Z,74.40
2023-10-18T15:42:33.379Z,74.50
2023-10-18T15:45:06.708Z,74.40
2023-10-18T15:47:40.179Z,74.30
2023-10-18T15:50:15.058Z,74.40
2023-10-18T15:52:47.215Z,74.40
2023-10-18T15:55:19.606Z,74.40
2023-10-18T15:57:52.028Z,74.50
2023-10-18T16:00:28.544Z,74.50
2023-10-18T16:03:01.664Z,74.60
2023-10-18T16:05:37.077Z,74.70
2023-10-18T16:08:09.485Z,74.90
2023-10-18T16:10:42.185Z,75.20
2023-10-18T16:13:18.646Z,75.40
2023-10-18T16:15:52.327Z,75.50
2023-10-18T16:18:24.725Z,75.70
2023-10-18T16:21:03.052Z,75.70
2023-10-18T16:23:41.369Z,75.80
2023-10-18T16:26:19.930Z,75.90
2023-10-18T16:28:53.428Z,76.00
2023-10-18T16:31:26.716Z,76.10
2023-10-18T16:33:58.902Z,76.20
2023-10-18T16:36:34.893Z,76.30
2023-10-18T16:39:07.126Z,76.40
2023-10-18T16:41:42.150Z,76.50
2023-10-18T16:44:15.606Z,76.60
2023-10-18T16:46:47.909Z,76.60
2023-10-18T16:49:20.310Z,76.60
2023-10-18T16:51:59.111Z,76.60
2023-10-18T16:54:32.989Z,76.60
2023-10-18T16:57:06.211Z,77.90
2023-10-18T16:59:40.191Z,78.20
2023-10-18T17:02:12.434Z,78.00
2023-10-18T17:04:44.623Z,77.30
2023-10-18T17:07:20.515Z,75.50
2023-10-18T17:09:52.753Z,74.30
2023-10-18T17:12:24.907Z,73.70
2023-10-18T17:14:57.957Z,73.40
2023-10-18T17:17:31.355Z,73.10
2023-10-18T17:20:15.651Z,73.00
2023-10-18T17:22:50.392Z,73.00
2023-10-18T17:25:22.556Z,73.10
2023-10-18T17:27:57.089Z,73.20
2023-10-18T17:30:30.123Z,73.50
2023-10-18T17:33:02.539Z,73.70
2023-10-18T17:35:34.809Z,74.00
2023-10-18T17:38:16.255Z,74.20
2023-10-18T17:40:49.078Z,74.40
2023-10-18T17:43:21.288Z,74.70
2023-10-18T17:45:53.705Z,74.90
2023-10-18T17:48:27.316Z,75.10
2023-10-18T17:50:59.564Z,75.40
2023-10-18T17:53:36.655Z,75.80
2023-10-18T17:56:11.914Z,76.20
2023-10-18T17:58:44.214Z,76.60
2023-10-18T18:01:23.223Z,77.00
2023-10-18T18:03:57.885Z,77.30
2023-10-18T18:06:30.229Z,77.50
2023-10-18T18:09:06.518Z,79.00
2023-10-18T18:11:38.758Z,79.40
2023-10-18T18:14:11.099Z,79.20
2023-10-18T18:16:43.396Z,78.70
2023-10-18T18:19:15.883Z,78.10
2023-10-18T18:21:48.133Z,77.40
2023-10-18T18:24:22.885Z,76.70
2023-10-18T18:26:56.565Z,76.40
2023-10-18T18:29:29.025Z,75.30
2023-10-18T18:32:01.325Z,74.70
2023-10-18T18:34:33.574Z,74.00
2023-10-18T18:37:05.865Z,73.50
2023-10-18T18:39:41.563Z,73.10
2023-10-18T18:42:13.899Z,72.80
2023-10-18T18:44:46.784Z,72.40
2023-10-18T18:47:19.191Z,72.10
2023-10-18T18:49:51.479Z,71.80
2023-10-18T18:52:23.695Z,71.60
2023-10-18T18:54:58.461Z,71.30
2023-10-18T18:57:30.622Z,70.90
2023-10-18T19:00:03.463Z,70.80
2023-10-18T19:02:35.779Z,70.60
2023-10-18T19:05:08.791Z,70.30
2023-10-18T19:07:43.070Z,70.20
2023-10-18T19:10:18.736Z,70.00
2023-10-18T19:12:54.501Z,69.90
2023-10-18T19:15:28.026Z,69.70
2023-10-18T19:18:01.911Z,69.70
2023-10-18T19:20:34.433Z,69.60
2023-10-18T19:23:07.994Z,69.60
2023-10-18T19:25:43.067Z,69.40
2023-10-18T19:28:15.302Z,69.30
2023-10-18T19:30:47.542Z,69.30
2023-10-18T19:33:19.963Z,69.40
2023-10-18T19:35:52.148Z,69.30
2023-10-18T19:38:24.726Z,69.40
2023-10-18T19:41:00.674Z,69.40
2023-10-18T19:43:32.869Z,69.40
2023-10-18T19:46:06.047Z,69.50
2023-10-18T19:48:40.013Z,69.50
2023-10-18T19:51:16.655Z,69.40
2023-10-18T19:53:50.822Z,69.50
2023-10-18T19:56:25.666Z,69.40
2023-10-18T19:58:57.810Z,69.30
2023-10-18T20:01:29.977Z,69.40
2023-10-18T20:04:02.390Z,69.50
2023-10-18T20:06:34.799Z,69.50
2023-10-18T20:09:07.259Z,69.50
2023-10-18T20:11:41.983Z,69.70
2023-10-18T20:14:14.254Z,69.90
2023-10-18T20:16:46.769Z,70.10
2023-10-18T20:19:20.203Z,70.30
2023-10-18T20:21:52.377Z,70.40
2023-10-18T20:24:24.652Z,70.50
2023-10-18T20:26:59.444Z,70.50
2023-10-18T20:29:32.278Z,70.50
2023-10-18T20:32:06.797Z,70.60
2023-10-18T20:34:40.438Z,70.60
2023-10-18T20:37:12.611Z,70.70
2023-10-18T20:39:51.693Z,70.70
2023-10-18T20:42:27.266Z,70.80
2023-10-18T20:44:59.630Z,70.80
2023-10-18T20:47:31.906Z,70.90
2023-10-18T20:50:19.124Z,70.90
2023-10-18T20:52:53.369Z,70.90
2023-10-18T20:55:30.149Z,71.00
2023-10-18T20:58:09.263Z,71.00
2023-10-18T21:00:43.706Z,71.10
2023-10-18T21:03:18.012Z,71.10
2023-10-18T21:05:51.739Z,71.30
2023-10-18T21:08:24.154Z,71.30
2023-10-18T21:10:56.434Z,71.30
2023-10-18T21:13:31.222Z,71.90
2023-10-18T21:16:07.438Z,71.40
2023-10-18T21:18:40.084Z,71.60
2023-10-18T21:21:15.799Z,71.70
2023-10-18T21:23:48.160Z,71.80
2023-10-18T21:26:21.002Z,71.90
2023-10-18T21:31:28.400Z,72.30
2023-10-18T21:34:00.630Z,72.40
2023-10-18T21:36:35.194Z,72.30
2023-10-18T21:39:07.886Z,72.50
2023-10-18T21:41:41.160Z,73.30
2023-10-18T21:44:15.920Z,74.60
2023-10-18T21:46:48.140Z,75.00
2023-10-18T21:49:20.384Z,76.30
2023-10-18T21:51:53.099Z,77.50
2023-10-18T21:54:25.261Z,78.30
2023-10-18T21:56:57.442Z,79.70
2023-10-18T21:59:32.141Z,82.00
2023-10-18T22:02:07.304Z,82.60
2023-10-18T22:04:39.633Z,83.10
2023-10-18T22:07:16.425Z,83.10
2023-10-18T22:09:54.627Z,82.80
2023-10-18T22:12:33.123Z,82.30
2023-10-18T22:15:15.722Z,81.80
2023-10-18T22:17:52.285Z,81.20
2023-10-18T22:20:24.469Z,80.70
2023-10-18T22:22:59.208Z,80.30
2023-10-18T22:26:01.953Z,79.90
2023-10-18T22:28:39.819Z,79.40
2023-10-18T22:31:14.642Z,78.80
2023-10-18T22:33:47.637Z,78.40
2023-10-18T22:36:22.583Z,77.90
2023-10-18T22:38:57.944Z,77.50
2023-10-18T22:41:38.722Z,77.30
2023-10-18T22:44:11.918Z,77.10
2023-10-18T22:46:49.753Z,76.70
2023-10-18T22:49:25.272Z,76.40
2023-10-18T22:52:00.485Z,76.20
2023-10-18T22:54:44.681Z,76.00
2023-10-18T22:57:19.694Z,75.60
2023-10-18T22:59:53.485Z,75.40
2023-10-18T23:02:29.379Z,75.30
2023-10-18T23:05:02.387Z,75.20
2023-10-18T23:07:35.110Z,75.10
2023-10-18T23:10:10.233Z,75.10
2023-10-18T23:12:45.431Z,75.20
2023-10-18T23:15:21.119Z,75.30
2023-10-18T23:17:56.448Z,75.30
2023-10-18T23:20:57.993Z,75.10
2023-10-18T23:23:39.247Z,75.10
2023-10-18T23:26:30.768Z,75.30
2023-10-18T23:29:07.101Z,75.30
2023-10-18T23:32:05.684Z,75.30
2023-10-18T23:34:52.987Z,75.40
2023-10-18T23:37:37.002Z,75.40
2023-10-18T23:40:28.899Z,75.40
2023-10-18T23:43:19.492Z,75.30
2023-10-18T23:45:58.356Z,75.30
2023-10-18T23:48:50.552Z,75.30
2023-10-18T23:51:25.471Z,75.30
2023-10-18T23:54:00.898Z,74.90
2023-10-18T23:56:34.383Z,74.60
2023-10-18T23:59:07.474Z,74.80
